createdAt,value
2017-09-28T00:00:18.839Z,18.20
2017-09-28T00:02:47.939Z,21.40
2017-09-28T00:05:17.037Z,17.13
2017-09-28T00:07:45.380Z,17.27
2017-09-28T00:10:13.664Z,20.20
2017-09-28T00:24:13.980Z,16.97
2017-09-28T00:26:42.764Z,20.90
2017-09-28T00:29:12.438Z,18.00
2017-09-28T00:31:41.193Z,22.10
2017-09-28T00:34:09.904Z,21.70
2017-09-28T00:36:38.321Z,16.70
2017-09-28T00:39:08.352Z,17.27
2017-09-28T00:41:38.332Z,19.70
2017-09-28T00:44:07.276Z,19.97
2017-09-28T00:46:41.722Z,19.30
2017-09-28T00:49:11.675Z,18.00
2017-09-28T00:51:41.781Z,17.47
2017-09-28T00:54:10.919Z,19.03
2017-09-28T00:56:39.534Z,20.43
2017-09-28T00:59:07.813Z,17.03
2017-09-28T01:01:37.084Z,17.23
2017-09-28T01:04:05.378Z,20.70
2017-09-28T01:06:33.673Z,20.03
2017-09-28T01:09:02.813Z,19.97
2017-09-28T01:11:31.091Z,22.40
2017-09-28T01:14:00.136Z,19.67
2017-09-28T01:16:28.641Z,17.40
2017-09-28T01:18:58.718Z,19.07
2017-09-28T01:21:27.798Z,18.93
2017-09-28T01:23:56.196Z,19.60
2017-09-28T01:26:25.387Z,18.77
2017-09-28T01:28:53.680Z,18.50
2017-09-28T01:31:21.997Z,33.17
2017-09-28T01:33:51.911Z,22.50
2017-09-28T01:36:21.206Z,20.40
2017-09-28T01:38:49.543Z,19.83
2017-09-28T01:41:17.872Z,21.30
2017-09-28T01:43:46.966Z,20.33
2017-09-28T01:46:17.016Z,19.23
2017-09-28T01:48:45.326Z,23.50
2017-09-28T01:51:13.618Z,20.60
2017-09-28T01:53:42.700Z,23.07
2017-09-28T01:56:11.111Z,24.13
2017-09-28T01:58:39.383Z,21.10
2017-09-28T02:01:08.614Z,18.90
2017-09-28T02:03:36.897Z,19.63
2017-09-28T02:06:06.001Z,21.60
2017-09-28T02:08:35.083Z,23.70
2017-09-28T02:11:03.369Z,21.63
2017-09-28T02:13:31.797Z,21.70
2017-09-28T02:16:00.227Z,21.97
2017-09-28T02:18:28.495Z,26.20
2017-09-28T02:20:56.801Z,34.93
2017-09-28T02:23:25.049Z,24.87
2017-09-28T02:25:53.403Z,22.30
2017-09-28T02:28:22.589Z,22.27
2017-09-28T02:30:52.606Z,23.80
2017-09-28T02:33:20.930Z,21.00
2017-09-28T02:35:50.132Z,22.43
2017-09-28T02:38:18.412Z,20.77
2017-09-28T02:40:47.643Z,23.77
2017-09-28T02:43:15.895Z,25.30
2017-09-28T02:45:45.100Z,23.63
2017-09-28T02:48:13.384Z,24.57
2017-09-28T02:50:42.501Z,20.77
2017-09-28T02:53:10.767Z,20.67
2017-09-28T02:55:40.076Z,20.80
2017-09-28T02:58:08.509Z,21.33
2017-09-28T03:00:37.727Z,20.77
2017-09-28T03:03:06.897Z,20.80
2017-09-28T03:05:35.166Z,19.97
2017-09-28T03:08:03.451Z,19.40
2017-09-28T03:10:31.853Z,20.70
2017-09-28T03:13:00.121Z,21.17
2017-09-28T03:15:28.475Z,21.37
2017-09-28T03:18:02.726Z,19.53
2017-09-28T03:20:30.983Z,20.87
2017-09-28T03:22:59.284Z,20.37
2017-09-28T03:25:27.546Z,19.80
2017-09-28T03:27:55.836Z,22.60
2017-09-28T03:30:25.099Z,20.10
2017-09-28T03:32:53.358Z,23.00
2017-09-28T03:35:22.384Z,23.73
2017-09-28T03:37:50.646Z,20.53
2017-09-28T03:40:18.911Z,20.30
2017-09-28T03:42:47.999Z,20.83
2017-09-28T03:45:17.035Z,20.27
2017-09-28T03:47:46.841Z,22.73
2017-09-28T03:50:15.119Z,21.93
2017-09-28T03:52:43.387Z,21.37
2017-09-28T03:55:11.654Z,21.10
2017-09-28T03:57:39.911Z,20.20
2017-09-28T04:00:09.011Z,30.27
2017-09-28T04:02:37.303Z,20.23
2017-09-28T04:05:05.655Z,22.73
2017-09-28T04:07:34.524Z,24.40
2017-09-28T04:10:02.804Z,25.33
2017-09-28T04:12:32.694Z,22.40
2017-09-28T04:15:00.976Z,20.57
2017-09-28T04:17:30.227Z,25.00
2017-09-28T04:19:58.492Z,21.50
2017-09-28T04:22:28.511Z,24.53
2017-09-28T04:24:58.524Z,21.57
2017-09-28T04:27:27.660Z,25.27
2017-09-28T04:29:55.979Z,23.30
2017-09-28T04:32:24.244Z,26.83
2017-09-28T04:34:52.721Z,23.40
2017-09-28T04:37:20.995Z,25.47
2017-09-28T04:39:49.291Z,22.63
2017-09-28T04:42:17.556Z,24.80
2017-09-28T04:44:45.811Z,27.07
2017-09-28T04:47:15.110Z,26.90
2017-09-28T04:49:43.375Z,24.13
2017-09-28T04:52:11.718Z,23.80
2017-09-28T04:54:40.895Z,27.93
2017-09-28T04:57:10.872Z,26.53
2017-09-28T04:59:40.327Z,24.87
2017-09-28T05:02:09.424Z,22.87
2017-09-28T05:04:38.646Z,21.87
2017-09-28T05:07:06.928Z,20.73
2017-09-28T05:09:35.267Z,29.97
2017-09-28T05:12:04.286Z,23.70
2017-09-28T05:14:32.651Z,20.97
2017-09-28T05:17:01.903Z,23.53
2017-09-28T05:19:30.166Z,25.30
2017-09-28T05:21:58.448Z,23.40
2017-09-28T05:24:26.777Z,21.77
2017-09-28T05:26:55.818Z,25.83
2017-09-28T05:29:24.055Z,23.53
2017-09-28T05:31:53.304Z,21.83
2017-09-28T05:34:23.456Z,24.40
2017-09-28T05:36:52.575Z,24.87
2017-09-28T05:39:20.997Z,27.33
2017-09-28T05:41:49.267Z,23.70
2017-09-28T05:44:17.538Z,28.60
2017-09-28T05:46:46.035Z,26.10
2017-09-28T05:49:14.339Z,25.33
2017-09-28T05:51:42.582Z,24.17
2017-09-28T05:54:10.865Z,25.30
2017-09-28T05:56:39.271Z,24.30
2017-09-28T05:59:07.551Z,24.53
2017-09-28T06:01:37.529Z,30.13
2017-09-28T06:04:05.860Z,27.73
2017-09-28T06:06:34.884Z,26.37
2017-09-28T06:09:03.167Z,26.30
2017-09-28T06:11:31.447Z,29.63
2017-09-28T06:13:59.741Z,26.60
2017-09-28T06:16:28.019Z,28.80
2017-09-28T06:18:56.285Z,24.60
2017-09-28T06:21:24.719Z,23.57
2017-09-28T06:23:53.050Z,25.03
2017-09-28T06:26:21.312Z,26.97
2017-09-28T06:28:50.551Z,25.60
2017-09-28T06:31:18.853Z,26.00
2017-09-28T06:33:48.975Z,22.30
2017-09-28T06:36:18.059Z,23.33
2017-09-28T06:38:47.136Z,25.63
2017-09-28T06:41:15.408Z,36.20
2017-09-28T06:43:43.793Z,23.73
2017-09-28T06:46:13.032Z,25.70
2017-09-28T06:48:41.314Z,25.00
2017-09-28T06:51:09.756Z,24.53
2017-09-28T06:53:37.992Z,24.17
2017-09-28T06:56:06.599Z,23.63
2017-09-28T06:58:36.195Z,25.10
2017-09-28T07:01:05.652Z,23.93
2017-09-28T07:03:34.253Z,25.47
2017-09-28T07:06:03.028Z,23.43
2017-09-28T07:08:32.512Z,27.70
2017-09-28T07:11:02.615Z,27.00
2017-09-28T07:13:32.244Z,25.10
2017-09-28T07:16:01.249Z,25.03
2017-09-28T07:18:32.274Z,28.07
2017-09-28T07:21:00.652Z,25.90
2017-09-28T07:23:39.058Z,26.63
2017-09-28T07:26:08.604Z,24.87
2017-09-28T07:28:36.917Z,26.17
2017-09-28T07:31:05.655Z,26.47
2017-09-28T07:33:34.983Z,23.03
2017-09-28T07:36:03.304Z,26.33
2017-09-28T07:38:31.557Z,27.80
2017-09-28T07:40:59.827Z,30.10
2017-09-28T07:43:28.138Z,23.10
2017-09-28T07:45:56.388Z,29.80
2017-09-28T07:48:24.652Z,26.77
2017-09-28T07:50:52.963Z,29.13
2017-09-28T07:53:21.216Z,26.37
2017-09-28T07:55:49.609Z,27.00
2017-09-28T07:58:17.943Z,23.40
2017-09-28T08:00:46.212Z,27.63
2017-09-28T08:03:14.727Z,28.50
2017-09-28T08:05:42.987Z,24.07
2017-09-28T08:08:11.255Z,28.57
2017-09-28T08:10:39.512Z,25.87
2017-09-28T08:13:07.759Z,25.40
2017-09-28T08:15:37.045Z,29.73
2017-09-28T08:18:06.260Z,24.60
2017-09-28T08:20:36.368Z,28.07
2017-09-28T08:23:04.656Z,26.57
2017-09-28T08:25:32.984Z,24.20
2017-09-28T08:28:01.405Z,27.70
2017-09-28T08:30:29.712Z,26.93
2017-09-28T08:32:58.744Z,27.23
2017-09-28T08:35:27.005Z,23.77
2017-09-28T08:37:55.283Z,22.83
2017-09-28T08:40:23.592Z,22.80
2017-09-28T08:42:51.879Z,23.77
2017-09-28T08:45:21.636Z,27.67
2017-09-28T08:47:49.935Z,22.90
2017-09-28T08:50:18.335Z,21.77
2017-09-28T08:52:47.399Z,22.87
2017-09-28T08:55:15.738Z,22.77
2017-09-28T08:57:46.526Z,22.83
2017-09-28T09:00:14.771Z,24.20
2017-09-28T09:02:43.092Z,23.00
2017-09-28T09:05:12.883Z,22.13
2017-09-28T09:07:42.382Z,25.90
2017-09-28T09:10:11.434Z,22.83
2017-09-28T09:12:41.262Z,26.03
2017-09-28T09:15:11.205Z,21.33
2017-09-28T09:17:41.193Z,23.00
2017-09-28T09:20:11.320Z,20.60
2017-09-28T09:22:41.302Z,28.53
2017-09-28T09:25:09.676Z,22.80
2017-09-28T09:27:38.752Z,22.10
2017-09-28T09:30:07.006Z,25.50
2017-09-28T09:32:35.332Z,23.50
2017-09-28T09:35:05.144Z,26.10
2017-09-28T09:37:35.188Z,21.30
2017-09-28T09:40:03.458Z,20.53
2017-09-28T09:42:31.746Z,20.87
2017-09-28T09:45:00.086Z,20.70
2017-09-28T09:47:28.464Z,19.03
2017-09-28T09:49:56.704Z,19.97
2017-09-28T09:52:25.000Z,19.23
2017-09-28T09:54:54.094Z,18.83
2017-09-28T09:57:22.388Z,17.90
2017-09-28T09:59:51.455Z,16.33
2017-09-28T10:02:19.760Z,16.07
2017-09-28T10:04:49.062Z,15.10
2017-09-28T10:07:19.041Z,15.03
2017-09-28T10:09:54.588Z,15.73
2017-09-28T10:12:29.940Z,20.90
2017-09-28T10:15:03.591Z,13.70
2017-09-28T10:17:35.208Z,20.43
2017-09-28T10:20:03.485Z,13.87
2017-09-28T10:22:33.355Z,18.60
2017-09-28T10:25:01.692Z,13.03
2017-09-28T10:27:29.961Z,15.57
2017-09-28T10:29:59.019Z,13.77
2017-09-28T10:32:27.293Z,11.60
2017-09-28T10:34:55.641Z,12.10
2017-09-28T10:37:24.704Z,11.07
2017-09-28T10:39:52.975Z,12.17
2017-09-28T10:42:21.302Z,11.33
2017-09-28T10:44:50.364Z,12.80
2017-09-28T10:47:19.411Z,9.67
2017-09-28T10:49:47.694Z,11.67
2017-09-28T10:52:16.936Z,10.23
2017-09-28T10:54:45.979Z,10.50
2017-09-28T10:57:15.172Z,12.50
2017-09-28T10:59:44.024Z,11.40
2017-09-28T11:02:13.122Z,10.60
2017-09-28T11:04:41.384Z,9.80
2017-09-28T11:07:09.653Z,9.60
2017-09-28T11:09:38.675Z,11.70
2017-09-28T11:12:07.721Z,10.63
2017-09-28T11:14:36.049Z,10.93
2017-09-28T11:17:04.859Z,10.60
2017-09-28T11:19:34.248Z,10.80
2017-09-28T11:22:03.451Z,27.37
2017-09-28T11:24:31.870Z,12.00
2017-09-28T11:27:00.228Z,9.97
2017-09-28T11:29:29.259Z,9.30
2017-09-28T11:31:57.686Z,10.07
2017-09-28T11:34:26.847Z,10.83
2017-09-28T11:36:55.121Z,9.97
2017-09-28T11:39:24.326Z,11.73
2017-09-28T11:41:52.648Z,11.27
2017-09-28T11:44:21.718Z,9.73
2017-09-28T11:46:50.037Z,9.20
2017-09-28T11:49:18.352Z,9.57
2017-09-28T11:51:46.636Z,12.23
2017-09-28T11:54:15.704Z,8.00
2017-09-28T11:56:43.975Z,9.60
2017-09-28T11:59:12.250Z,9.60
2017-09-28T12:01:40.575Z,10.57
2017-09-28T12:04:10.586Z,9.70
2017-09-28T12:06:38.907Z,9.53
2017-09-28T12:09:08.018Z,8.90
2017-09-28T12:11:37.216Z,10.00
2017-09-28T12:14:06.607Z,9.73
2017-09-28T12:16:35.739Z,11.20
2017-09-28T12:19:04.185Z,11.40
2017-09-28T12:21:32.482Z,9.50
2017-09-28T12:24:00.768Z,10.30
2017-09-28T12:26:29.905Z,9.57
2017-09-28T12:28:59.116Z,10.33
2017-09-28T12:31:34.731Z,11.53
2017-09-28T12:34:10.669Z,8.60
2017-09-28T12:36:38.912Z,9.43
2017-09-28T12:39:08.989Z,9.13
2017-09-28T12:41:37.277Z,10.83
2017-09-28T12:44:06.360Z,10.40
2017-09-28T12:46:35.550Z,9.40
2017-09-28T12:49:03.865Z,9.07
2017-09-28T12:51:32.887Z,7.67
2017-09-28T12:54:01.165Z,8.70
2017-09-28T12:56:29.494Z,10.37
2017-09-28T12:58:57.872Z,13.50
2017-09-28T13:01:26.171Z,8.20
2017-09-28T13:03:54.481Z,9.73
2017-09-28T13:06:22.749Z,9.10
2017-09-28T13:08:51.864Z,8.60
2017-09-28T13:11:20.144Z,9.43
2017-09-28T13:13:48.462Z,10.00
2017-09-28T13:16:17.593Z,7.93
2017-09-28T13:18:46.904Z,9.87
2017-09-28T13:21:16.142Z,13.50
2017-09-28T13:23:46.226Z,8.43
2017-09-28T13:26:15.671Z,8.37
2017-09-28T13:28:44.037Z,10.30
2017-09-28T13:31:12.419Z,7.97
2017-09-28T13:33:41.610Z,8.33
2017-09-28T13:36:09.962Z,7.40
2017-09-28T13:38:38.316Z,7.40
2017-09-28T13:41:06.729Z,8.13
2017-09-28T13:43:35.787Z,8.23
2017-09-28T13:46:05.961Z,8.60
2017-09-28T13:48:34.390Z,9.30
2017-09-28T13:51:02.715Z,12.10
2017-09-28T13:53:32.945Z,8.13
2017-09-28T13:56:02.446Z,7.63
2017-09-28T13:58:30.796Z,10.70
2017-09-28T14:00:59.181Z,10.00
2017-09-28T14:03:32.229Z,9.03
2017-09-28T14:06:00.656Z,11.33
2017-09-28T14:08:29.043Z,7.93
2017-09-28T14:10:58.339Z,8.90
2017-09-28T14:13:29.311Z,9.40
2017-09-28T14:16:00.244Z,7.10
2017-09-28T14:18:31.156Z,8.33
2017-09-28T14:21:01.233Z,6.67
2017-09-28T14:23:30.736Z,8.43
2017-09-28T14:25:59.299Z,7.87
2017-09-28T14:28:27.812Z,7.73
2017-09-28T14:30:56.993Z,7.37
2017-09-28T14:33:26.089Z,7.77
2017-09-28T14:35:56.306Z,8.70
2017-09-28T14:38:24.713Z,6.43
2017-09-28T14:40:53.265Z,9.83
2017-09-28T14:43:22.857Z,7.53
2017-09-28T14:45:52.348Z,7.57
2017-09-28T14:48:21.657Z,8.03
2017-09-28T14:50:53.047Z,7.40
2017-09-28T14:53:22.190Z,7.27
2017-09-28T14:55:50.759Z,7.67
2017-09-28T14:58:19.123Z,7.97
2017-09-28T15:00:48.559Z,7.20
2017-09-28T15:03:16.888Z,8.10
2017-09-28T15:05:46.066Z,7.47
2017-09-28T15:08:15.337Z,12.63
2017-09-28T15:10:43.699Z,7.93
2017-09-28T15:13:11.987Z,9.23
2017-09-28T15:15:41.047Z,8.20
2017-09-28T15:18:09.375Z,6.70
2017-09-28T15:20:38.515Z,8.60
2017-09-28T15:23:07.656Z,13.10
2017-09-28T15:25:36.196Z,7.30
2017-09-28T15:28:05.297Z,8.13
2017-09-28T15:30:33.683Z,8.23
2017-09-28T15:33:01.991Z,8.10
2017-09-28T15:35:31.296Z,6.90
2017-09-28T15:38:00.632Z,7.67
2017-09-28T15:40:29.730Z,7.10
2017-09-28T15:42:59.000Z,10.20
2017-09-28T15:45:27.297Z,8.87
2017-09-28T15:47:57.406Z,7.17
2017-09-28T15:50:26.648Z,13.73
2017-09-28T15:52:55.846Z,7.47
2017-09-28T15:55:26.117Z,7.83
2017-09-28T15:57:54.553Z,9.00
2017-09-28T16:00:24.013Z,7.73
2017-09-28T16:02:53.182Z,6.93
2017-09-28T16:05:22.319Z,7.00
2017-09-28T16:07:51.669Z,8.40
2017-09-28T16:10:19.960Z,14.13
2017-09-28T16:12:49.214Z,8.03
2017-09-28T16:15:19.200Z,7.80
2017-09-28T16:17:48.318Z,7.57
2017-09-28T16:20:18.160Z,8.33
2017-09-28T16:22:46.457Z,9.50
2017-09-28T16:25:15.507Z,7.00
2017-09-28T16:27:44.873Z,7.90
2017-09-28T16:30:13.267Z,8.27
2017-09-28T16:32:41.607Z,10.63
2017-09-28T16:35:11.764Z,8.10
2017-09-28T16:37:40.849Z,8.47
2017-09-28T16:40:10.053Z,8.27
2017-09-28T16:42:39.296Z,8.20
2017-09-28T16:45:07.594Z,10.13
2017-09-28T16:47:35.934Z,10.23
2017-09-28T16:50:10.679Z,9.83
2017-09-28T16:52:40.002Z,8.63
2017-09-28T16:55:09.450Z,8.70
2017-09-28T16:57:38.529Z,11.63
2017-09-28T17:00:06.955Z,8.10
2017-09-28T17:02:35.313Z,10.60
2017-09-28T17:05:03.673Z,8.37
2017-09-28T17:07:32.831Z,7.93
2017-09-28T17:10:01.146Z,7.67
2017-09-28T17:12:29.510Z,7.50
2017-09-28T17:14:58.677Z,9.13
2017-09-28T17:17:27.297Z,9.43
2017-09-28T17:19:55.897Z,8.50
2017-09-28T17:22:25.239Z,8.77
2017-09-28T17:24:53.587Z,10.33
2017-09-28T17:27:23.587Z,11.33
2017-09-28T17:29:52.022Z,8.20
2017-09-28T17:32:20.542Z,8.80
2017-09-28T17:34:48.804Z,9.60
2017-09-28T17:37:17.912Z,7.77
2017-09-28T17:39:47.116Z,7.80
2017-09-28T17:42:15.442Z,8.33
2017-09-28T17:44:43.811Z,7.40
2017-09-28T17:47:17.477Z,7.87
2017-09-28T17:49:46.730Z,7.00
2017-09-28T17:52:15.143Z,8.87
2017-09-28T17:54:44.392Z,8.40
2017-09-28T17:57:12.836Z,9.52
2017-09-28T17:59:42.810Z,8.17
2017-09-28T18:02:12.249Z,9.67
2017-09-28T18:04:41.941Z,8.87
2017-09-28T18:07:11.109Z,8.97
2017-09-28T18:09:39.838Z,8.53
2017-09-28T18:12:09.165Z,7.30
2017-09-28T18:14:38.869Z,8.10
2017-09-28T18:17:08.570Z,8.10
2017-09-28T18:19:37.776Z,7.77
2017-09-28T18:22:06.317Z,7.43
2017-09-28T18:24:35.828Z,8.47
2017-09-28T18:27:05.023Z,10.37
2017-09-28T18:29:33.345Z,9.83
2017-09-28T18:32:18.936Z,8.43
2017-09-28T18:34:47.332Z,13.23
2017-09-28T18:37:15.662Z,8.47
2017-09-28T18:39:44.151Z,8.13
2017-09-28T18:42:12.532Z,8.70
2017-09-28T18:44:41.815Z,8.90
2017-09-28T18:47:10.338Z,8.27
2017-09-28T18:49:39.403Z,10.03
2017-09-28T18:52:08.684Z,8.87
2017-09-28T18:54:38.145Z,7.77
2017-09-28T18:57:07.501Z,8.70
2017-09-28T18:59:35.950Z,7.47
2017-09-28T19:02:04.412Z,9.90
2017-09-28T19:04:33.876Z,10.30
2017-09-28T19:07:03.700Z,9.30
2017-09-28T19:09:33.212Z,8.67
2017-09-28T19:12:08.792Z,8.60
2017-09-28T19:14:38.969Z,8.80
2017-09-28T19:17:07.391Z,8.77
2017-09-28T19:19:36.597Z,8.10
2017-09-28T19:22:05.919Z,9.20
2017-09-28T19:24:40.182Z,9.47
2017-09-28T19:27:08.505Z,9.63
2017-09-28T19:29:37.685Z,8.10
2017-09-28T19:32:06.018Z,8.83
2017-09-28T19:34:34.424Z,9.17
2017-09-28T19:37:02.821Z,10.80
2017-09-28T19:39:31.179Z,9.27
2017-09-28T19:42:00.435Z,13.27
2017-09-28T19:44:28.904Z,9.50
2017-09-28T19:46:58.180Z,9.70
2017-09-28T19:49:29.745Z,13.27
2017-09-28T19:51:58.218Z,10.30
2017-09-28T19:54:27.434Z,10.27
2017-09-28T19:56:56.009Z,9.20
2017-09-28T19:59:29.438Z,10.23
2017-09-28T20:01:57.847Z,9.93
2017-09-28T20:04:26.427Z,9.90
2017-09-28T20:06:55.514Z,10.83
2017-09-28T20:09:24.446Z,15.03
2017-09-28T20:11:52.736Z,10.60
2017-09-28T20:14:21.483Z,10.87
2017-09-28T20:16:51.512Z,10.93
2017-09-28T20:19:20.813Z,14.00
2017-09-28T20:21:50.074Z,11.33
2017-09-28T20:24:18.350Z,12.17
2017-09-28T20:26:46.699Z,12.50
2017-09-28T20:29:16.059Z,12.03
2017-09-28T20:31:44.537Z,11.23
2017-09-28T20:34:13.697Z,10.67
2017-09-28T20:36:43.046Z,10.30
2017-09-28T20:39:13.012Z,11.27
2017-09-28T20:41:41.340Z,10.30
2017-09-28T20:44:10.427Z,12.17
2017-09-28T20:46:39.612Z,12.90
2017-09-28T20:49:08.009Z,12.87
2017-09-28T20:51:36.495Z,12.03
2017-09-28T20:54:05.593Z,12.37
2017-09-28T20:56:34.118Z,15.07
2017-09-28T20:59:02.518Z,12.07
2017-09-28T21:01:31.259Z,12.40
2017-09-28T21:04:00.971Z,12.33
2017-09-28T21:06:30.039Z,12.70
2017-09-28T21:08:59.553Z,12.13
2017-09-28T21:11:28.669Z,13.20
2017-09-28T21:13:57.420Z,12.97
2017-09-28T21:16:26.043Z,13.30
2017-09-28T21:18:56.234Z,14.13
2017-09-28T21:21:26.473Z,13.97
2017-09-28T21:23:55.104Z,15.67
2017-09-28T21:26:23.807Z,12.80
2017-09-28T21:28:55.367Z,12.50
2017-09-28T21:31:24.779Z,13.17
2017-09-28T21:33:53.372Z,12.87
2017-09-28T21:36:22.112Z,13.40
2017-09-28T21:38:50.464Z,14.00
2017-09-28T21:41:19.381Z,12.87
2017-09-28T21:43:48.384Z,13.00
2017-09-28T21:46:18.008Z,11.23
2017-09-28T21:48:46.491Z,11.23
2017-09-28T21:51:15.973Z,12.13
2017-09-28T21:53:44.666Z,12.20
2017-09-28T21:56:14.849Z,14.73
2017-09-28T21:58:43.384Z,12.23
2017-09-28T22:01:11.891Z,12.00
2017-09-28T22:03:40.553Z,12.57
2017-09-28T22:06:09.332Z,13.60
2017-09-28T22:08:37.826Z,13.70
2017-09-28T22:11:06.435Z,14.40
2017-09-28T22:13:35.702Z,14.90
2017-09-28T22:16:04.690Z,16.10
2017-09-28T22:18:33.593Z,16.57
2017-09-28T22:21:03.813Z,15.37
2017-09-28T22:23:32.832Z,16.67
2017-09-28T22:26:01.147Z,15.87
2017-09-28T22:28:32.261Z,15.87
2017-09-28T22:31:00.608Z,16.30
2017-09-28T22:33:29.665Z,16.67
2017-09-28T22:35:58.089Z,13.90
2017-09-28T22:38:26.371Z,12.83
2017-09-28T22:40:55.388Z,13.17
2017-09-28T22:43:23.707Z,13.70
2017-09-28T22:45:51.955Z,13.47
2017-09-28T22:48:20.264Z,14.57
2017-09-28T22:50:49.322Z,13.60
2017-09-28T22:53:17.667Z,16.10
2017-09-28T22:55:46.659Z,15.90
2017-09-28T22:58:15.932Z,16.33
2017-09-28T23:00:45.039Z,16.67
2017-09-28T23:03:13.316Z,17.10
2017-09-28T23:05:43.609Z,15.33
2017-09-28T23:08:14.304Z,15.20
2017-09-28T23:10:43.477Z,15.10
2017-09-28T23:13:11.759Z,18.13
2017-09-28T23:15:40.031Z,16.30
2017-09-28T23:18:09.178Z,18.13
2017-09-28T23:23:37.730Z,19.60
2017-09-28T23:26:06.031Z,18.63
2017-09-28T23:28:34.360Z,19.57
2017-09-28T23:31:04.129Z,19.53
2017-09-28T23:33:33.248Z,17.27
2017-09-28T23:36:01.533Z,16.97
2017-09-28T23:38:30.665Z,15.43
2017-09-28T23:40:58.993Z,18.67
2017-09-28T23:43:27.331Z,18.63
2017-09-28T23:45:55.669Z,16.67
2017-09-28T23:48:25.576Z,15.33
2017-09-28T23:50:54.599Z,16.97
2017-09-28T23:53:22.869Z,16.17
2017-09-28T23:55:51.140Z,15.73
2017-09-28T23:58:19.475Z,15.60
